Time;durP1;ratioP1;P1;durP2;ratioP2;P2;SDS_P1;SDS_P2;PMS_P1;PMS_P2;Temp;Humidity;BMP_temperature;BMP_pressure;BME280_temperature;BME280_humidity;BME280_pressure;Samples;Min_cycle;Max_cycle;Signal;HPM_P1;HPM_P2
2021/12/13 00:01:12;;;;;;;431.50;80.45;;;10.10;99.90;;;;;;5071424;28;20092;-73
2021/12/13 00:03:50;;;;;;;450.95;81.35;;;10.00;99.90;;;;;;5054603;28;20047;-73
2021/12/13 00:06:22;;;;;;;443.95;82.90;;;10.20;99.90;;;;;;5071099;28;20463;-73
2021/12/13 00:08:52;;;;;;;426.08;78.78;;;10.30;99.90;;;;;;5071205;28;20066;-73
2021/12/13 00:11:42;;;;;;;446.65;78.25;;;10.10;99.90;;;;;;5071090;28;20052;-73
2021/12/13 00:14:16;;;;;;;476.92;82.70;;;10.10;99.90;;;;;;5070828;28;20082;-73
2021/12/13 00:16:50;;;;;;;435.42;82.30;;;10.10;99.90;;;;;;5071341;28;20471;-73
2021/12/13 00:19:21;;;;;;;474.08;81.45;;;10.10;99.90;;;;;;5054535;28;20072;-72
2021/12/13 00:22:02;;;;;;;535.78;86.70;;;11.00;99.90;;;;;;5054376;28;20040;-72
2021/12/13 00:24:32;;;;;;;412.70;78.72;;;10.10;99.90;;;;;;5070883;28;20052;-72
2021/12/13 00:27:18;;;;;;;588.35;88.93;;;10.10;99.90;;;;;;5070691;28;20056;-73
2021/12/13 00:29:59;;;;;;;494.38;84.05;;;10.10;99.90;;;;;;5087939;28;20139;-72
2021/12/13 00:32:52;;;;;;;468.23;81.63;;;10.10;99.90;;;;;;5070454;28;20036;-72
2021/12/13 00:35:23;;;;;;;484.40;83.85;;;10.10;99.90;;;;;;5070383;28;20468;-72
2021/12/13 00:37:54;;;;;;;485.38;83.25;;;10.10;99.90;;;;;;5070707;28;20048;-68
2021/12/13 00:40:28;;;;;;;446.30;77.63;;;10.10;99.90;;;;;;5070398;28;20052;-68
2021/12/13 00:43:00;;;;;;;449.63;79.80;;;10.60;99.90;;;;;;5054167;28;20044;-68
2021/12/13 00:45:36;;;;;;;553.38;85.60;;;10.10;99.90;;;;;;5070302;28;20055;-68
2021/12/13 00:48:06;;;;;;;486.52;80.93;;;10.60;99.90;;;;;;5070199;28;20056;-68
2021/12/13 00:50:41;;;;;;;411.42;75.00;;;10.10;99.90;;;;;;5070349;28;20141;-68
2021/12/13 00:53:07;;;;;;;396.98;72.22;;;10.10;99.90;;;;;;5070231;28;20389;-68
2021/12/13 00:55:34;;;;;;;366.65;68.43;;;10.10;99.90;;;;;;5070157;28;20085;-68
2021/12/13 00:58:03;;;;;;;382.67;70.03;;;10.10;99.90;;;;;;5069977;28;20488;-68
2021/12/13 01:00:37;;;;;;;351.63;68.50;;;10.10;99.90;;;;;;5070262;28;20041;-68
2021/12/13 01:03:14;;;;;;;338.90;67.53;;;10.10;99.90;;;;;;5070221;28;20064;-68
2021/12/13 01:05:56;;;;;;;342.30;66.47;;;10.10;99.90;;;;;;5069671;28;20048;-68
2021/12/13 01:08:31;;;;;;;352.70;66.80;;;10.00;99.90;;;;;;5069606;28;20063;-68
2021/12/13 01:11:27;;;;;;;369.88;66.13;;;9.40;99.90;;;;;;5070034;28;20040;-68
2021/12/13 01:14:18;;;;;;;351.90;68.90;;;10.20;99.90;;;;;;5059056;28;20060;-68
2021/12/13 01:17:01;;;;;;;446.35;74.95;;;10.10;99.90;;;;;;5069828;28;20496;-68
2021/12/13 01:19:49;;;;;;;321.33;67.20;;;10.30;99.90;;;;;;5071155;28;20044;-68
2021/12/13 01:28:11;;;;;;;412.65;69.20;;;10.10;99.90;;;;;;5069894;28;20556;-68
2021/12/13 01:30:58;;;;;;;338.70;63.35;;;10.10;99.90;;;;;;5069603;28;20170;-68
2021/12/13 01:33:26;;;;;;;317.77;61.42;;;10.10;99.90;;;;;;5052716;28;20055;-68
2021/12/13 01:36:00;;;;;;;396.23;65.13;;;10.10;99.90;;;;;;5070693;28;20170;-68
2021/12/13 01:38:35;;;;;;;383.25;64.40;;;10.10;99.90;;;;;;5069528;28;20049;-68
2021/12/13 01:41:09;;;;;;;349.75;62.05;;;10.40;99.90;;;;;;5069585;28;20048;-68
2021/12/13 01:43:43;;;;;;;374.92;62.92;;;10.10;99.90;;;;;;5069564;28;20040;-68
2021/12/13 01:46:09;;;;;;;349.25;61.38;;;10.00;99.90;;;;;;5052199;28;20040;-68
2021/12/13 01:48:39;;;;;;;440.77;67.20;;;10.10;99.90;;;;;;5068758;28;20064;-68
2021/12/13 01:51:11;;;;;;;290.48;58.60;;;10.10;99.90;;;;;;5052433;28;20053;-67
2021/12/13 01:53:58;;;;;;;276.58;57.75;;;10.10;99.90;;;;;;5052479;28;20040;-68
2021/12/13 01:56:54;;;;;;;259.42;56.08;;;10.20;99.90;;;;;;5069267;28;20052;-68
2021/12/13 01:59:44;;;;;;;251.68;54.60;;;10.10;99.90;;;;;;5069177;28;20076;-68
2021/12/13 02:02:10;;;;;;;276.20;56.45;;;10.10;99.90;;;;;;5085647;28;20048;-68
2021/12/13 02:04:39;;;;;;;268.75;55.47;;;10.10;99.90;;;;;;5052747;28;20045;-68
2021/12/13 02:07:07;;;;;;;295.30;56.85;;;10.10;99.90;;;;;;5069034;28;20055;-68
2021/12/13 02:09:37;;;;;;;233.35;52.65;;;10.10;99.90;;;;;;5069055;28;20060;-68
2021/12/13 02:12:14;;;;;;;163.82;47.55;;;10.10;99.90;;;;;;5052644;28;20091;-68
2021/12/13 02:17:43;;;;;;;168.65;47.78;;;10.10;99.90;;;;;;5068830;28;20040;-68
2021/12/13 02:20:18;;;;;;;169.00;47.22;;;10.20;99.90;;;;;;5068713;28;20131;-68
2021/12/13 02:22:47;;;;;;;185.55;48.15;;;10.20;99.90;;;;;;5068723;28;20131;-68
2021/12/13 02:25:22;;;;;;;204.38;50.42;;;10.20;99.90;;;;;;5068858;28;20159;-68
2021/12/13 02:28:08;;;;;;;180.40;48.05;;;10.20;99.90;;;;;;5069382;28;20567;-68
2021/12/13 02:30:51;;;;;;;;;;;10.20;99.90;;;;;;5048723;28;20088;-68
2021/12/13 02:33:21;;;;;;;176.02;47.10;;;11.00;99.90;;;;;;5051847;28;19924;-68
2021/12/13 02:35:54;;;;;;;150.10;46.80;;;10.20;99.90;;;;;;5068978;28;20049;-68
2021/12/13 02:38:21;;;;;;;177.57;47.72;;;10.20;99.90;;;;;;5068790;28;20037;-68
2021/12/13 02:40:48;;;;;;;168.00;46.55;;;10.20;99.90;;;;;;5068671;28;20048;-68
2021/12/13 02:43:18;;;;;;;133.43;44.97;;;10.20;99.90;;;;;;5068796;28;20090;-68
2021/12/13 02:45:49;;;;;;;161.60;48.67;;;10.20;99.90;;;;;;5068791;28;20055;-68
2021/12/13 02:48:20;;;;;;;137.02;46.58;;;10.20;99.90;;;;;;5068282;28;20060;-68
2021/12/13 02:51:17;;;;;;;146.48;48.25;;;10.20;99.90;;;;;;5068620;28;20057;-68
2021/12/13 02:53:56;;;;;;;153.35;46.67;;;10.20;99.90;;;;;;5069688;28;20044;-68
2021/12/13 02:56:27;;;;;;;122.60;45.13;;;10.20;99.90;;;;;;5068725;28;20040;-67
2021/12/13 02:58:54;;;;;;;122.35;44.58;;;10.20;99.90;;;;;;5071489;28;20640;-68
2021/12/13 03:01:37;;;;;;;118.53;44.05;;;10.40;99.90;;;;;;5072576;28;20124;-67
2021/12/13 03:04:14;;;;;;;148.75;49.33;;;10.20;99.90;;;;;;5072470;28;20129;-67
2021/12/13 03:06:45;;;;;;;136.65;47.13;;;10.20;99.90;;;;;;5055557;28;20090;-67
2021/12/13 03:09:18;;;;;;;119.90;44.85;;;10.10;99.90;;;;;;5072838;28;20442;-67
2021/12/13 03:11:47;;;;;;;96.28;41.45;;;10.20;99.90;;;;;;5072152;28;20044;-68
2021/12/13 03:14:18;;;;;;;83.07;37.83;;;10.10;99.90;;;;;;5072423;28;20117;-67
2021/12/13 03:16:53;;;;;;;99.95;40.95;;;10.20;99.90;;;;;;5072203;28;20485;-67
2021/12/13 03:19:37;;;;;;;75.82;35.83;;;10.10;99.90;;;;;;5072346;28;20444;-68
2021/12/13 03:22:29;;;;;;;67.47;35.20;;;10.10;99.90;;;;;;5071717;28;20044;-68
2021/12/13 03:25:26;;;;;;;82.22;36.63;;;10.10;99.90;;;;;;5071868;28;20137;-68
2021/12/13 03:28:16;;;;;;;78.65;35.40;;;10.20;99.90;;;;;;5055518;28;20086;-67
2021/12/13 03:30:55;;;;;;;78.72;34.78;;;10.10;99.90;;;;;;5072095;28;20131;-68
2021/12/13 03:33:30;;;;;;;63.83;32.40;;;10.30;99.90;;;;;;5071769;28;20087;-68
2021/12/13 03:35:59;;;;;;;58.90;30.10;;;10.10;99.90;;;;;;5071902;28;20036;-68
2021/12/13 03:38:30;;;;;;;64.20;29.52;;;10.10;99.90;;;;;;5071730;28;20040;-68
2021/12/13 03:41:05;;;;;;;57.42;28.85;;;9.80;99.90;;;;;;5054955;28;20080;-68
2021/12/13 03:43:43;;;;;;;59.10;27.20;;;10.00;99.90;;;;;;5088403;28;20074;-68
2021/12/13 03:46:12;;;;;;;47.28;26.38;;;10.10;99.90;;;;;;5088360;28;20088;-68
2021/12/13 03:48:39;;;;;;;52.88;25.10;;;10.00;99.90;;;;;;5072491;28;20132;-68
2021/12/13 03:51:10;;;;;;;56.40;25.75;;;10.00;99.90;;;;;;5071842;28;20113;-68
2021/12/13 03:53:36;;;;;;;44.17;21.10;;;10.00;99.90;;;;;;5072760;28;20047;-68
2021/12/13 03:56:12;;;;;;;52.33;22.80;;;9.90;99.90;;;;;;5054657;28;20036;-68
2021/12/13 03:58:44;;;;;;;43.17;21.13;;;9.90;99.90;;;;;;5071130;28;20040;-68
2021/12/13 04:01:13;;;;;;;52.45;23.40;;;9.90;99.90;;;;;;5054313;28;20036;-68
2021/12/13 04:03:40;;;;;;;44.42;22.08;;;9.90;99.90;;;;;;5071269;28;20467;-68
2021/12/13 04:06:07;;;;;;;49.17;23.52;;;9.80;99.90;;;;;;5071128;28;20048;-68
2021/12/13 04:08:34;;;;;;;50.35;22.05;;;9.80;99.90;;;;;;5071054;28;20576;-68
2021/12/13 04:11:08;;;;;;;53.88;23.08;;;9.80;99.90;;;;;;5070325;28;20128;-68
2021/12/13 04:13:39;;;;;;;50.25;22.15;;;9.70;99.90;;;;;;5071186;28;20686;-68
2021/12/13 04:16:18;;;;;;;48.47;21.70;;;9.60;99.90;;;;;;5071115;28;20045;-68
2021/12/13 04:19:08;;;;;;;42.50;21.42;;;9.60;99.90;;;;;;5071119;28;20094;-68
2021/12/13 04:21:52;;;;;;;55.47;22.88;;;9.60;99.90;;;;;;5071285;28;20488;-68
2021/12/13 04:24:26;;;;;;;54.53;23.88;;;9.60;99.90;;;;;;5071182;28;20525;-68
2021/12/13 04:26:56;;;;;;;47.40;21.80;;;9.50;99.90;;;;;;5071376;28;20477;-68
2021/12/13 04:29:26;;;;;;;44.95;20.20;;;9.50;99.90;;;;;;5071149;28;20036;-68
2021/12/13 04:31:53;;;;;;;44.97;21.20;;;9.50;99.90;;;;;;5054481;28;20048;-68
2021/12/13 04:34:23;;;;;;;55.83;23.50;;;9.60;99.90;;;;;;5071949;28;20218;-68
2021/12/13 04:36:52;;;;;;;52.90;21.75;;;9.50;99.90;;;;;;5070496;28;20127;-68
2021/12/13 04:39:33;;;;;;;47.47;20.67;;;9.30;99.90;;;;;;5070393;28;20051;-68
2021/12/13 04:42:02;;;;;;;39.08;19.30;;;9.30;99.90;;;;;;5070442;28;20571;-68
2021/12/13 04:44:50;;;;;;;38.97;18.15;;;9.40;99.90;;;;;;5053986;28;20048;-68
2021/12/13 04:47:20;;;;;;;34.42;17.88;;;9.30;99.90;;;;;;5070131;28;20053;-68
2021/12/13 04:49:56;;;;;;;36.67;17.30;;;9.30;99.90;;;;;;5070051;28;20174;-68
2021/12/13 04:52:24;;;;;;;34.58;17.35;;;8.80;99.90;;;;;;5070007;28;20400;-68
2021/12/13 04:54:53;;;;;;;32.65;16.67;;;9.20;99.90;;;;;;5069903;28;20048;-68
2021/12/13 04:57:20;;;;;;;30.50;16.27;;;9.20;99.90;;;;;;5069979;28;20123;-68
2021/12/13 04:59:53;;;;;;;33.30;17.15;;;9.20;99.90;;;;;;5069793;28;20047;-68
2021/12/13 05:02:21;;;;;;;32.78;16.50;;;9.10;99.90;;;;;;5069792;28;20051;-74
2021/12/13 05:04:52;;;;;;;33.05;17.60;;;9.20;99.90;;;;;;5069882;28;20052;-73
2021/12/13 05:07:18;;;;;;;39.83;19.58;;;9.20;99.90;;;;;;5053326;28;20110;-74
2021/12/13 05:09:47;;;;;;;41.42;19.77;;;9.20;99.90;;;;;;5070039;28;20178;-73
2021/12/13 05:12:15;;;;;;;34.45;18.67;;;9.20;99.90;;;;;;5069984;28;20045;-74
2021/12/13 05:14:51;;;;;;;37.40;20.05;;;9.20;99.90;;;;;;5070393;28;20109;-74
2021/12/13 05:17:23;;;;;;;33.33;18.95;;;9.20;99.90;;;;;;5071394;28;20158;-74
2021/12/13 05:19:58;;;;;;;39.78;20.30;;;9.20;99.90;;;;;;5069977;28;20182;-74
2021/12/13 05:22:27;;;;;;;41.75;20.92;;;9.10;99.90;;;;;;5069030;28;20433;-74
2021/12/13 05:24:59;;;;;;;39.50;20.15;;;9.40;99.90;;;;;;5071492;28;20131;-73
2021/12/13 05:27:38;;;;;;;46.42;20.48;;;9.00;99.90;;;;;;5069794;28;20131;-74
2021/12/13 05:30:19;;;;;;;40.10;20.67;;;9.20;99.90;;;;;;5069731;28;20097;-74
2021/12/13 05:33:00;;;;;;;44.22;20.33;;;9.20;99.90;;;;;;5052893;28;20059;-73
2021/12/13 05:35:33;;;;;;;46.83;21.33;;;9.20;99.90;;;;;;5069569;28;20041;-73
2021/12/13 05:38:04;;;;;;;51.67;23.08;;;9.20;99.90;;;;;;5069691;28;20143;-74
2021/12/13 05:40:37;;;;;;;55.97;24.58;;;9.20;99.90;;;;;;5070052;28;20044;-73
2021/12/13 05:43:18;;;;;;;70.07;27.45;;;9.10;99.90;;;;;;5052892;28;20575;-74
2021/12/13 05:45:50;;;;;;;57.08;27.35;;;9.20;99.90;;;;;;5052614;28;20512;-73
2021/12/13 05:48:36;;;;;;;62.85;27.20;;;9.20;99.90;;;;;;5052705;28;20052;-74
2021/12/13 05:51:20;;;;;;;51.67;25.85;;;9.20;99.90;;;;;;5069636;28;20127;-74
2021/12/13 05:53:51;;;;;;;58.83;28.20;;;9.10;99.90;;;;;;5069658;28;20416;-74
2021/12/13 05:56:19;;;;;;;63.08;28.27;;;9.20;99.90;;;;;;5069677;28;20040;-74
2021/12/13 05:58:53;;;;;;;61.00;28.30;;;9.20;99.90;;;;;;5069345;28;20033;-74
2021/12/13 06:01:31;;;;;;;60.90;28.85;;;9.20;99.90;;;;;;5052583;28;20051;-74
2021/12/13 06:04:06;;;;;;;67.43;29.67;;;9.10;99.90;;;;;;5069303;28;20079;-74
2021/12/13 06:06:43;;;;;;;67.63;29.87;;;9.10;99.90;;;;;;5069527;28;20052;-74
2021/12/13 06:09:09;;;;;;;71.78;30.40;;;9.40;99.90;;;;;;5069365;28;20051;-73
2021/12/13 06:11:39;;;;;;;88.80;32.55;;;9.50;99.90;;;;;;5052423;28;20040;-74
2021/12/13 06:14:19;;;;;;;88.72;34.03;;;9.10;99.90;;;;;;5069218;28;20079;-73
2021/12/13 06:16:49;;;;;;;82.22;32.78;;;9.50;99.90;;;;;;5069467;28;20048;-73
2021/12/13 06:19:30;;;;;;;73.28;33.22;;;8.80;99.90;;;;;;5069035;28;20076;-73
2021/12/13 06:22:16;;;;;;;78.65;33.95;;;9.40;99.90;;;;;;5068958;28;20063;-74
2021/12/13 06:24:52;;;;;;;91.47;36.13;;;9.10;99.90;;;;;;5069220;28;20407;-74
2021/12/13 06:27:22;;;;;;;84.10;35.05;;;8.90;99.90;;;;;;5069467;28;20396;-73
2021/12/13 06:30:03;;;;;;;91.70;36.83;;;8.90;99.90;;;;;;5069253;28;20040;-74
2021/12/13 06:32:49;;;;;;;82.20;35.15;;;8.70;99.90;;;;;;5070431;28;20063;-74
2021/12/13 06:35:36;;;;;;;98.68;38.78;;;9.30;99.90;;;;;;5073001;28;20090;-74
2021/12/13 06:38:20;;;;;;;93.80;38.88;;;9.20;99.90;;;;;;5073249;28;20044;-74
2021/12/13 06:41:06;;;;;;;93.25;39.17;;;9.30;99.90;;;;;;5072951;28;20045;-74
2021/12/13 06:43:38;;;;;;;94.72;40.20;;;9.30;99.90;;;;;;5072693;28;20152;-74
2021/12/13 06:46:24;;;;;;;120.22;43.13;;;8.70;99.90;;;;;;5072554;28;20091;-74
2021/12/13 06:48:59;;;;;;;108.13;42.65;;;9.10;99.90;;;;;;5071756;28;20060;-74
2021/12/13 06:51:40;;;;;;;109.32;42.63;;;8.90;99.90;;;;;;5072976;28;20374;-73
2021/12/13 06:54:29;;;;;;;98.88;42.65;;;8.80;99.90;;;;;;5072635;28;20094;-74
2021/12/13 06:56:59;;;;;;;90.43;40.63;;;9.00;99.90;;;;;;5072707;28;20094;-68
2021/12/13 06:59:26;;;;;;;91.93;40.25;;;9.10;99.90;;;;;;5072465;28;20094;-68
2021/12/13 07:02:20;;;;;;;95.47;41.35;;;9.30;99.90;;;;;;5073608;28;20044;-69
2021/12/13 07:04:48;;;;;;;96.55;42.15;;;9.00;99.90;;;;;;5055571;28;20052;-69
2021/12/13 07:07:18;;;;;;;106.70;45.00;;;9.10;99.90;;;;;;5072026;28;20044;-69
2021/12/13 07:09:53;;;;;;;94.32;42.38;;;9.10;99.90;;;;;;5055215;28;20090;-69
2021/12/13 07:12:20;;;;;;;92.93;43.03;;;9.20;99.90;;;;;;5071888;28;20049;-69
2021/12/13 07:14:46;;;;;;;122.40;47.60;;;8.90;99.90;;;;;;5071558;28;20125;-68
2021/12/13 07:17:34;;;;;;;103.97;45.78;;;8.90;99.90;;;;;;5072582;28;20048;-69
2021/12/13 07:20:16;;;;;;;113.80;47.22;;;9.00;99.90;;;;;;5073468;28;20044;-69
2021/12/13 07:22:43;;;;;;;96.40;45.13;;;9.10;99.90;;;;;;5089222;28;20814;-69
2021/12/13 07:25:15;;;;;;;106.78;47.20;;;9.00;99.90;;;;;;5073200;28;20404;-69
2021/12/13 07:27:47;;;;;;;109.05;47.63;;;8.70;99.90;;;;;;5071783;28;20044;-69
2021/12/13 07:30:18;;;;;;;101.22;47.38;;;9.10;99.90;;;;;;5073373;28;20090;-69
2021/12/13 07:32:53;;;;;;;97.72;46.00;;;9.10;99.90;;;;;;5071818;28;20659;-69
2021/12/13 07:35:40;;;;;;;105.50;46.90;;;9.10;99.90;;;;;;5071734;28;20052;-68
2021/12/13 07:38:17;;;;;;;112.20;48.08;;;9.50;99.90;;;;;;5071644;28;20090;-69
2021/12/13 07:40:43;;;;;;;106.75;48.28;;;9.00;99.90;;;;;;5071371;28;20911;-69
2021/12/13 07:43:38;;;;;;;122.68;50.75;;;9.10;99.90;;;;;;5071347;28;20052;-69
2021/12/13 07:46:09;;;;;;;95.97;46.10;;;9.20;99.90;;;;;;5070625;28;20048;-69
2021/12/13 07:48:41;;;;;;;99.57;47.08;;;9.00;99.90;;;;;;5071063;28;20170;-69
2021/12/13 07:51:19;;;;;;;102.03;47.20;;;8.80;99.90;;;;;;5071324;28;20053;-69
2021/12/13 07:53:54;;;;;;;112.05;47.95;;;9.20;99.90;;;;;;5070769;28;20052;-68
2021/12/13 07:56:28;;;;;;;102.78;48.10;;;9.30;99.90;;;;;;5088286;28;20045;-68
2021/12/13 07:59:09;;;;;;;89.93;44.53;;;9.00;99.90;;;;;;5071773;28;20056;-69
2021/12/13 08:01:49;;;;;;;95.30;46.22;;;9.10;99.90;;;;;;5071385;28;20048;-68
2021/12/13 08:04:21;;;;;;;109.60;47.83;;;9.00;99.90;;;;;;5060718;28;20120;-69
2021/12/13 08:06:51;;;;;;;94.10;44.30;;;9.10;99.90;;;;;;5068280;28;20051;-68
2021/12/13 08:09:23;;;;;;;91.00;45.50;;;9.10;99.90;;;;;;5071198;28;20063;-68
2021/12/13 08:12:17;;;;;;;95.90;46.65;;;9.10;99.90;;;;;;5070243;28;20063;-69
2021/12/13 08:14:47;;;;;;;87.65;44.05;;;9.10;99.90;;;;;;5033666;28;20045;-68
2021/12/13 08:17:22;;;;;;;89.10;45.10;;;9.00;99.90;;;;;;5066463;28;20033;-69
2021/12/13 08:20:03;;;;;;;90.80;45.42;;;8.70;99.90;;;;;;5053104;28;20083;-68
2021/12/13 08:22:31;;;;;;;95.75;46.13;;;9.00;99.90;;;;;;5070248;28;20055;-69
2021/12/13 08:25:13;;;;;;;100.20;47.92;;;9.00;99.90;;;;;;5069429;28;20216;-68
2021/12/13 08:27:41;;;;;;;91.60;45.05;;;9.00;99.90;;;;;;5052948;28;20135;-68
2021/12/13 08:30:16;;;;;;;78.57;43.15;;;9.00;99.90;;;;;;5069148;28;20121;-68
2021/12/13 08:33:06;;;;;;;82.10;42.72;;;9.00;99.90;;;;;;5069670;28;20469;-68
2021/12/13 08:35:53;;;;;;;94.85;45.17;;;9.10;99.90;;;;;;5069863;28;20115;-69
2021/12/13 08:38:47;;;;;;;89.00;44.13;;;8.80;99.90;;;;;;5069715;28;20131;-68
2021/12/13 08:41:15;;;;;;;85.55;42.53;;;8.90;99.90;;;;;;5069757;28;20040;-73
2021/12/13 08:43:48;;;;;;;86.45;42.20;;;9.10;99.90;;;;;;5069492;28;20040;-73
2021/12/13 08:46:44;;;;;;;84.18;41.35;;;8.90;99.90;;;;;;5052794;28;20047;-74
2021/12/13 08:49:20;;;;;;;73.80;39.78;;;8.90;99.90;;;;;;5069381;28;20106;-74
2021/12/13 08:52:04;;;;;;;73.68;38.60;;;9.20;99.90;;;;;;5052815;28;20037;-70
2021/12/13 08:54:51;;;;;;;81.10;40.22;;;9.10;99.90;;;;;;5053374;28;20479;-68
2021/12/13 08:57:50;;;;;;;75.53;40.33;;;9.10;99.90;;;;;;5049592;28;20056;-68
2021/12/13 09:00:30;;;;;;;76.68;40.60;;;9.10;99.90;;;;;;5048965;28;20489;-68
2021/12/13 09:03:16;;;;;;;79.80;39.60;;;9.10;99.90;;;;;;5049572;28;20080;-68
2021/12/13 09:05:56;;;;;;;79.32;38.85;;;9.30;99.90;;;;;;5066764;28;20052;-73
2021/12/13 09:08:48;;;;;;;78.82;39.35;;;9.00;99.90;;;;;;5050208;28;20094;-74
2021/12/13 09:11:27;;;;;;;69.35;37.85;;;9.00;99.90;;;;;;5045270;28;20056;-74
2021/12/13 09:14:08;;;;;;;67.55;37.90;;;9.10;99.90;;;;;;5049813;28;20045;-74
2021/12/13 09:16:55;;;;;;;76.50;39.08;;;9.10;99.90;;;;;;5050368;28;20512;-74
2021/12/13 09:19:32;;;;;;;67.60;36.33;;;9.10;99.90;;;;;;5049939;28;20475;-73
2021/12/13 09:22:18;;;;;;;64.28;35.85;;;9.10;99.90;;;;;;5066580;28;20040;-74
2021/12/13 09:24:53;;;;;;;71.78;36.67;;;9.00;99.90;;;;;;5051202;28;20052;-74
2021/12/13 09:27:40;;;;;;;69.45;36.35;;;8.30;99.90;;;;;;5066351;28;20048;-74
2021/12/13 09:30:12;;;;;;;74.78;37.88;;;8.90;99.90;;;;;;5049712;28;20080;-74
2021/12/13 09:32:49;;;;;;;66.90;37.28;;;9.20;99.90;;;;;;5049576;28;20132;-74
2021/12/13 09:35:50;;;;;;;78.18;38.15;;;9.10;99.90;;;;;;5049850;28;20047;-74
2021/12/13 09:38:22;;;;;;;64.60;35.13;;;9.20;99.90;;;;;;5032890;28;20116;-68
2021/12/13 09:41:11;;;;;;;65.35;35.72;;;8.60;99.90;;;;;;5049746;28;20080;-74
2021/12/13 09:43:43;;;;;;;60.38;33.53;;;9.20;99.90;;;;;;5049553;28;20080;-74
2021/12/13 09:46:14;;;;;;;54.28;31.77;;;9.20;99.90;;;;;;5050507;28;20099;-74
2021/12/13 09:48:48;;;;;;;56.38;31.02;;;9.30;99.90;;;;;;5050424;28;20486;-73
2021/12/13 09:51:22;;;;;;;55.35;32.08;;;9.20;99.90;;;;;;5049303;28;20131;-74
2021/12/13 09:53:52;;;;;;;54.22;31.38;;;9.00;99.90;;;;;;5032599;28;20083;-74
2021/12/13 09:56:20;;;;;;;51.50;29.85;;;9.10;99.90;;;;;;5049427;28;20029;-74
2021/12/13 09:58:53;;;;;;;50.33;29.30;;;9.20;99.90;;;;;;5049300;28;20045;-74
2021/12/13 10:01:30;;;;;;;53.95;30.42;;;9.30;99.90;;;;;;5049238;28;20045;-74
2021/12/13 10:04:05;;;;;;;54.15;30.63;;;9.10;99.90;;;;;;5049418;28;20147;-70
2021/12/13 10:06:40;;;;;;;58.55;30.63;;;9.30;99.90;;;;;;5049288;28;20051;-70
2021/12/13 10:09:16;;;;;;;46.13;27.67;;;9.30;99.90;;;;;;5065499;28;20076;-70
2021/12/13 10:11:57;;;;;;;48.85;28.88;;;9.30;99.90;;;;;;5033444;28;20033;-71
2021/12/13 10:14:27;;;;;;;47.53;29.00;;;9.10;99.90;;;;;;5049318;28;20044;-71
2021/12/13 10:16:55;;;;;;;48.17;27.35;;;9.30;99.90;;;;;;5049486;28;20063;-70
2021/12/13 10:19:46;;;;;;;51.42;28.95;;;9.30;99.90;;;;;;5049898;28;20047;-70
2021/12/13 10:22:15;;;;;;;43.05;26.30;;;9.20;99.90;;;;;;5065573;28;20051;-70
2021/12/13 10:24:50;;;;;;;45.35;26.75;;;9.30;99.90;;;;;;5065688;28;20049;-70
2021/12/13 10:27:18;;;;;;;47.33;27.52;;;9.30;99.90;;;;;;5048952;28;20048;-71
2021/12/13 10:29:54;;;;;;;45.22;27.77;;;6.40;99.90;;;;;;5065536;28;20048;-74
2021/12/13 10:32:26;;;;;;;45.03;27.35;;;9.20;99.90;;;;;;5049275;28;20045;-74
2021/12/13 10:34:59;;;;;;;39.17;25.35;;;9.10;99.90;;;;;;5066033;28;20535;-74
2021/12/13 10:37:34;;;;;;;41.88;25.25;;;9.30;99.90;;;;;;5049269;28;20041;-74
2021/12/13 10:40:08;;;;;;;45.97;26.40;;;9.50;99.90;;;;;;5065879;28;20073;-74
2021/12/13 10:42:40;;;;;;;43.85;26.73;;;9.30;99.90;;;;;;5048974;28;20048;-71
2021/12/13 10:45:23;;;;;;;43.28;25.33;;;9.40;99.90;;;;;;5049043;28;20080;-71
2021/12/13 10:47:53;;;;;;;40.63;26.25;;;9.30;99.90;;;;;;5049508;28;20057;-71
2021/12/13 10:50:39;;;;;;;45.85;26.05;;;9.40;99.90;;;;;;5049268;28;20052;-71
2021/12/13 10:53:07;;;;;;;43.60;24.83;;;9.30;99.90;;;;;;5049370;28;20056;-71
2021/12/13 10:55:44;;;;;;;41.15;25.60;;;9.50;99.90;;;;;;5049221;28;20115;-72
2021/12/13 10:58:13;;;;;;;42.75;25.83;;;9.40;99.90;;;;;;5048712;28;20040;-71
2021/12/13 11:01:07;;;;;;;46.58;25.88;;;9.40;99.90;;;;;;5048723;28;20143;-74
2021/12/13 11:03:36;;;;;;;39.80;25.20;;;9.40;99.90;;;;;;5033232;28;20049;-74
2021/12/13 11:06:04;;;;;;;41.55;24.20;;;9.50;99.90;;;;;;5065307;28;20073;-74
2021/12/13 11:08:31;;;;;;;47.42;24.25;;;9.20;99.90;;;;;;5065401;28;20389;-74
2021/12/13 11:10:59;;;;;;;38.33;24.45;;;10.20;99.90;;;;;;5065091;28;20049;-74
2021/12/13 11:13:30;;;;;;;39.28;24.20;;;9.50;99.90;;;;;;5048302;28;20045;-73
2021/12/13 11:16:01;;;;;;;38.35;24.05;;;9.00;99.90;;;;;;5048451;28;20033;-71
2021/12/13 11:18:28;;;;;;;37.85;24.02;;;9.40;99.90;;;;;;5048559;28;20782;-71
2021/12/13 11:20:58;;;;;;;38.22;23.90;;;9.50;99.90;;;;;;5050835;28;20059;-74
2021/12/13 11:23:24;;;;;;;39.13;24.65;;;9.70;99.90;;;;;;5051869;28;20052;-74
2021/12/13 11:25:55;;;;;;;38.50;23.13;;;9.60;99.90;;;;;;5068547;28;20063;-74
2021/12/13 11:28:22;;;;;;;34.97;23.02;;;9.80;99.90;;;;;;5052164;28;20049;-74
2021/12/13 11:30:51;;;;;;;38.03;23.45;;;9.40;99.90;;;;;;5052517;28;20181;-74
2021/12/13 11:34:01;;;;;;;34.58;23.33;;;10.00;99.90;;;;;;5053417;28;20435;-74
2021/12/13 11:37:00;;;;;;;35.22;24.05;;;9.40;99.90;;;;;;5052069;28;20041;-74
2021/12/13 11:40:07;;;;;;;36.80;23.77;;;9.30;99.90;;;;;;5052002;28;20041;-74
2021/12/13 11:43:03;;;;;;;37.00;24.35;;;9.60;99.90;;;;;;5053259;28;20044;-74
2021/12/13 11:45:47;;;;;;;35.28;23.33;;;9.40;99.90;;;;;;5068607;28;20052;-74
2021/12/13 11:48:31;;;;;;;35.50;23.20;;;9.80;99.90;;;;;;5052734;28;20398;-71
2021/12/13 11:51:28;;;;;;;37.53;23.10;;;9.50;99.90;;;;;;5070891;28;20078;-71
2021/12/13 11:53:56;;;;;;;;;;;9.50;99.90;;;;;;5071706;28;20048;-74
2021/12/13 11:57:16;;;;;;;35.03;23.90;;;9.50;99.90;;;;;;5071836;28;19920;-74
2021/12/13 12:00:00;;;;;;;33.80;22.70;;;9.50;99.90;;;;;;4997342;28;20046;-74
2021/12/13 12:02:57;;;;;;;36.35;22.95;;;9.30;99.90;;;;;;5013498;28;20143;-74
2021/12/13 12:06:03;;;;;;;36.90;22.95;;;9.50;99.90;;;;;;5002373;28;20049;-74
2021/12/13 12:08:47;;;;;;;33.10;22.48;;;9.30;99.90;;;;;;5002880;28;20053;-71
2021/12/13 12:11:24;;;;;;;33.35;23.05;;;9.50;99.90;;;;;;5012504;28;20053;-71
2021/12/13 12:14:05;;;;;;;35.10;22.75;;;9.70;99.90;;;;;;5012126;28;20053;-71
2021/12/13 12:16:36;;;;;;;34.72;22.05;;;9.50;99.90;;;;;;5012699;28;20399;-71
2021/12/13 12:19:02;;;;;;;34.88;22.65;;;9.50;99.90;;;;;;5012489;28;20049;-72
2021/12/13 12:21:53;;;;;;;33.83;21.83;;;9.40;99.90;;;;;;5012745;28;20437;-72
2021/12/13 12:24:26;;;;;;;33.13;20.85;;;9.50;99.90;;;;;;5029309;28;20064;-71
2021/12/13 12:27:00;;;;;;;33.90;22.17;;;9.80;99.90;;;;;;5028838;28;20053;-72
2021/12/13 12:29:39;;;;;;;33.03;21.27;;;9.40;99.90;;;;;;4994884;28;20056;-72
2021/12/13 12:32:13;;;;;;;31.85;22.10;;;9.50;99.90;;;;;;5011572;28;20041;-72
2021/12/13 12:34:54;;;;;;;35.15;21.98;;;10.00;99.90;;;;;;5045732;28;20056;-72
2021/12/13 12:37:59;;;;;;;29.33;20.88;;;9.30;99.90;;;;;;5065361;28;20059;-72
2021/12/13 12:40:31;;;;;;;34.40;21.42;;;9.50;99.90;;;;;;5070424;28;20056;-72
2021/12/13 12:43:00;;;;;;;32.05;21.00;;;9.50;99.90;;;;;;5071434;28;20037;-72
2021/12/13 12:45:38;;;;;;;33.20;20.90;;;9.10;99.90;;;;;;5070021;28;20593;-72
2021/12/13 12:48:20;;;;;;;36.67;21.70;;;10.00;99.90;;;;;;5051601;28;20065;-72
2021/12/13 12:50:57;;;;;;;29.98;20.80;;;9.60;99.90;;;;;;5050279;28;20173;-72
2021/12/13 12:53:46;;;;;;;36.20;21.98;;;9.70;99.90;;;;;;5050170;28;20041;-72
2021/12/13 12:56:21;;;;;;;31.50;20.30;;;9.60;99.90;;;;;;5050285;28;20037;-72
2021/12/13 12:58:57;;;;;;;29.45;20.52;;;9.40;99.90;;;;;;5051418;28;20179;-72
2021/12/13 13:01:31;;;;;;;31.77;20.90;;;9.30;99.90;;;;;;5033598;28;20041;-72
2021/12/13 13:04:24;;;;;;;29.92;20.50;;;9.60;99.90;;;;;;5050370;28;20399;-72
2021/12/13 13:06:58;;;;;;;31.70;21.30;;;9.60;99.90;;;;;;5050237;28;20053;-72
2021/12/13 13:09:39;;;;;;;33.67;21.10;;;9.60;99.90;;;;;;5050179;28;20144;-72
2021/12/13 13:12:06;;;;;;;35.40;21.65;;;9.40;99.90;;;;;;5060589;28;20063;-72
2021/12/13 13:14:41;;;;;;;33.03;21.58;;;9.60;99.90;;;;;;5069718;28;20484;-72
2021/12/13 13:17:07;;;;;;;38.60;20.50;;;9.60;99.90;;;;;;5070295;28;20055;-72
2021/12/13 13:19:41;;;;;;;33.05;21.20;;;9.60;99.90;;;;;;5069707;28;20503;-71
2021/12/13 13:22:12;;;;;;;32.35;21.13;;;9.70;99.90;;;;;;5071089;28;20124;-72
2021/12/13 13:24:45;;;;;;;34.03;21.00;;;9.60;99.90;;;;;;5071181;28;20048;-72
2021/12/13 13:27:11;;;;;;;32.10;21.17;;;9.50;99.90;;;;;;5069842;28;20032;-72